首页
METAR-TAF:

METAR-TAF

机场 :

Caldwell Industrial Airport

Caldwell, 爱达荷州, 美国

纬度: 43-38N, 经度: 116-38W, 海拔: 740米

当前天气观测

该预报发布于21分钟前的01:56 UTC
风速3节,风向
温度 24°C
湿度 47%
气压 1016 hPa
能見度: 16.1公里
天空无云

METAR: KEUL 270156Z AUTO 01003KT 10SM CLR 24/12 A3000 RMK AO2 SLP141 T02390117

时间: 20:17 (02:17 UTC)

预报

该预报发布于2小时和49分钟前的23:28 UTC
预报有效从27日的 00点(UTC)到 27日的 24点(UTC)
风速8节,风向西北
能見度: 10公里
散云层高于5000英尺
从 27日的 0600点(UTC)
风速6节,风向西北
能見度: 10公里
散云层高于6000英尺
多云层高于10000英尺
附近有阵雨
从 27日的 1500点(UTC)
风速6节,风向西北
能見度: 10公里
散云层高于15000英尺

TAF: KEUL 262328Z 2700/2724 32008KT P6SM SCT050 FM270600 31006KT P6SM VCSH SCT060 BKN100 FM271500 31006KT P6SM SCT150

超过4000个机场的气象观测和天气预报(METAR&TAF报告)。

可查询的气象台以黄色和红色小点在地图上表示。

将鼠标移到小点上方,可查看气象台名称。

然后点击查看天气观测和预报。

如需切换地图:点击带黑十字的绿色按钮放大地图;点击带横线的绿色按钮缩小地图;或者点击绿色箭头查看邻近地区的地图。


METAR-TAF: